sensor_id;sensor_type;location;lat;lon;timestamp;temperature;humidity
55369;DHT22;41247;49.736;8.752;2023-02-26T00:02:32;-1.70;99.90
55369;DHT22;41247;49.736;8.752;2023-02-26T00:06:13;-1.80;99.90
55369;DHT22;41247;49.736;8.752;2023-02-26T00:09:54;-1.80;99.90
55369;DHT22;41247;49.736;8.752;2023-02-26T00:13:36;-1.90;99.90
55369;DHT22;41247;49.736;8.752;2023-02-26T00:17:47;-2.00;99.90
55369;DHT22;41247;49.736;8.752;2023-02-26T00:21:33;-2.00;99.90
55369;DHT22;41247;49.736;8.752;2023-02-26T00:25:15;-2.10;99.90
55369;DHT22;41247;49.736;8.752;2023-02-26T00:28:55;-2.10;99.90
55369;DHT22;41247;49.736;8.752;2023-02-26T00:32:37;-2.10;99.90
55369;DHT22;41247;49.736;8.752;2023-02-26T00:36:20;-2.00;99.90
55369;DHT22;41247;49.736;8.752;2023-02-26T00:40:45;-2.00;99.90
55369;DHT22;41247;49.736;8.752;2023-02-26T00:44:27;-1.90;99.90
55369;DHT22;41247;49.736;8.752;2023-02-26T00:52:43;-1.90;99.90
55369;DHT22;41247;49.736;8.752;2023-02-26T00:56:28;-1.90;99.90
55369;DHT22;41247;49.736;8.752;2023-02-26T01:00:09;-1.90;99.90
55369;DHT22;41247;49.736;8.752;2023-02-26T01:03:51;-2.00;99.90
55369;DHT22;41247;49.736;8.752;2023-02-26T01:11:54;-2.00;99.90
55369;DHT22;41247;49.736;8.752;2023-02-26T01:15:36;-2.10;99.90
55369;DHT22;41247;49.736;8.752;2023-02-26T01:23:34;-2.20;99.90
55369;DHT22;41247;49.736;8.752;2023-02-26T01:27:18;-2.20;99.90
55369;DHT22;41247;49.736;8.752;2023-02-26T01:31:01;-2.30;99.90
55369;DHT22;41247;49.736;8.752;2023-02-26T01:34:54;-2.30;99.90
55369;DHT22;41247;49.736;8.752;2023-02-26T01:39:07;-2.30;99.90
55369;DHT22;41247;49.736;8.752;2023-02-26T01:43:02;-2.30;99.90
55369;DHT22;41247;49.736;8.752;2023-02-26T01:50:53;-2.20;99.90
55369;DHT22;41247;49.736;8.752;2023-02-26T01:54:36;-2.20;99.90
55369;DHT22;41247;49.736;8.752;2023-02-26T01:58:19;-2.10;99.90
55369;DHT22;41247;49.736;8.752;2023-02-26T02:02:03;-2.10;99.90
55369;DHT22;41247;49.736;8.752;2023-02-26T02:05:53;-2.10;99.90
55369;DHT22;41247;49.736;8.752;2023-02-26T02:09:36;-2.10;99.90
55369;DHT22;41247;49.736;8.752;2023-02-26T02:13:44;-2.10;99.90
55369;DHT22;41247;49.736;8.752;2023-02-26T02:17:45;-2.10;99.90
55369;DHT22;41247;49.736;8.752;2023-02-26T02:26:08;-2.00;99.90
55369;DHT22;41247;49.736;8.752;2023-02-26T02:34:18;-2.10;99.90
55369;DHT22;41247;49.736;8.752;2023-02-26T02:38:17;-2.10;99.90
55369;DHT22;41247;49.736;8.752;2023-02-26T02:42:06;-2.20;99.90
55369;DHT22;41247;49.736;8.752;2023-02-26T02:46:19;-2.30;99.90
55369;DHT22;41247;49.736;8.752;2023-02-26T02:50:45;-2.30;99.90
55369;DHT22;41247;49.736;8.752;2023-02-26T02:54:48;-2.30;99.90
55369;DHT22;41247;49.736;8.752;2023-02-26T02:58:36;-2.30;99.90
55369;DHT22;41247;49.736;8.752;2023-02-26T03:07:03;-2.40;99.90
55369;DHT22;41247;49.736;8.752;2023-02-26T03:10:44;-2.40;99.90
55369;DHT22;41247;49.736;8.752;2023-02-26T03:14:26;-2.40;99.90
55369;DHT22;41247;49.736;8.752;2023-02-26T03:18:33;-2.30;99.90
55369;DHT22;41247;49.736;8.752;2023-02-26T03:22:40;-2.40;99.90
55369;DHT22;41247;49.736;8.752;2023-02-26T03:26:33;-2.40;99.90
55369;DHT22;41247;49.736;8.752;2023-02-26T03:30:37;-2.40;99.90
55369;DHT22;41247;49.736;8.752;2023-02-26T03:34:29;-2.40;99.90
55369;DHT22;41247;49.736;8.752;2023-02-26T03:38:29;-2.50;99.90
55369;DHT22;41247;49.736;8.752;2023-02-26T03:42:27;-2.60;99.90
55369;DHT22;41247;49.736;8.752;2023-02-26T03:46:15;-2.60;99.90
55369;DHT22;41247;49.736;8.752;2023-02-26T03:50:19;-2.70;99.90
55369;DHT22;41247;49.736;8.752;2023-02-26T03:54:34;-2.80;99.90
55369;DHT22;41247;49.736;8.752;2023-02-26T03:58:16;-2.80;99.90
55369;DHT22;41247;49.736;8.752;2023-02-26T04:02:02;-2.90;99.90
55369;DHT22;41247;49.736;8.752;2023-02-26T04:05:48;-3.00;99.90
55369;DHT22;41247;49.736;8.752;2023-02-26T04:09:30;-3.00;99.90
55369;DHT22;41247;49.736;8.752;2023-02-26T04:13:10;-3.00;99.90
55369;DHT22;41247;49.736;8.752;2023-02-26T04:16:51;-3.00;99.90
55369;DHT22;41247;49.736;8.752;2023-02-26T04:20:31;-3.00;99.90
55369;DHT22;41247;49.736;8.752;2023-02-26T04:24:12;-3.00;99.90
55369;DHT22;41247;49.736;8.752;2023-02-26T04:27:53;-3.00;99.90
55369;DHT22;41247;49.736;8.752;2023-02-26T04:31:33;-3.00;99.90
55369;DHT22;41247;49.736;8.752;2023-02-26T04:35:14;-3.00;99.90
55369;DHT22;41247;49.736;8.752;2023-02-26T04:38:55;-3.10;99.90
55369;DHT22;41247;49.736;8.752;2023-02-26T04:42:35;-3.10;99.90
55369;DHT22;41247;49.736;8.752;2023-02-26T04:46:16;-3.10;99.90
55369;DHT22;41247;49.736;8.752;2023-02-26T04:49:57;-3.10;99.90
55369;DHT22;41247;49.736;8.752;2023-02-26T04:53:37;-3.20;99.90
55369;DHT22;41247;49.736;8.752;2023-02-26T04:57:18;-3.20;99.90
55369;DHT22;41247;49.736;8.752;2023-02-26T05:00:58;-3.20;99.90
55369;DHT22;41247;49.736;8.752;2023-02-26T05:04:39;-3.10;99.90
55369;DHT22;41247;49.736;8.752;2023-02-26T05:08:20;-3.00;99.90
55369;DHT22;41247;49.736;8.752;2023-02-26T05:12:00;-2.90;99.90
55369;DHT22;41247;49.736;8.752;2023-02-26T05:15:41;-2.80;99.90
55369;DHT22;41247;49.736;8.752;2023-02-26T05:19:21;-2.90;99.90
55369;DHT22;41247;49.736;8.752;2023-02-26T05:23:02;-3.00;99.90
55369;DHT22;41247;49.736;8.752;2023-02-26T05:26:43;-3.10;99.90
55369;DHT22;41247;49.736;8.752;2023-02-26T05:30:24;-3.20;99.90
55369;DHT22;41247;49.736;8.752;2023-02-26T05:34:04;-3.20;99.90
55369;DHT22;41247;49.736;8.752;2023-02-26T05:37:45;-3.30;99.90
55369;DHT22;41247;49.736;8.752;2023-02-26T05:41:25;-3.30;99.90
55369;DHT22;41247;49.736;8.752;2023-02-26T05:45:07;-3.30;99.90
55369;DHT22;41247;49.736;8.752;2023-02-26T05:48:48;-3.30;99.90
55369;DHT22;41247;49.736;8.752;2023-02-26T05:52:28;-3.30;99.90
55369;DHT22;41247;49.736;8.752;2023-02-26T05:56:09;-3.30;99.90
55369;DHT22;41247;49.736;8.752;2023-02-26T05:59:50;-3.40;99.90
55369;DHT22;41247;49.736;8.752;2023-02-26T06:03:30;-3.30;99.90
55369;DHT22;41247;49.736;8.752;2023-02-26T06:07:11;-3.30;99.90
55369;DHT22;41247;49.736;8.752;2023-02-26T06:10:51;-3.30;99.90
55369;DHT22;41247;49.736;8.752;2023-02-26T06:14:33;-3.40;99.90
55369;DHT22;41247;49.736;8.752;2023-02-26T06:18:13;-3.40;99.90
55369;DHT22;41247;49.736;8.752;2023-02-26T06:21:54;-3.40;99.90
55369;DHT22;41247;49.736;8.752;2023-02-26T06:25:35;-3.40;99.90
55369;DHT22;41247;49.736;8.752;2023-02-26T06:29:15;-3.30;99.90
55369;DHT22;41247;49.736;8.752;2023-02-26T06:32:56;-3.20;99.90
55369;DHT22;41247;49.736;8.752;2023-02-26T06:36:37;-3.10;99.90
55369;DHT22;41247;49.736;8.752;2023-02-26T06:40:18;-3.10;99.90
55369;DHT22;41247;49.736;8.752;2023-02-26T06:43:59;-3.00;99.90
55369;DHT22;41247;49.736;8.752;2023-02-26T06:47:40;-3.10;99.90
55369;DHT22;41247;49.736;8.752;2023-02-26T06:51:21;-3.10;99.90
55369;DHT22;41247;49.736;8.752;2023-02-26T06:55:02;-3.00;99.90
55369;DHT22;41247;49.736;8.752;2023-02-26T06:58:44;-2.80;99.90
55369;DHT22;41247;49.736;8.752;2023-02-26T07:02:24;-2.80;99.90
55369;DHT22;41247;49.736;8.752;2023-02-26T07:06:06;-2.80;99.90
55369;DHT22;41247;49.736;8.752;2023-02-26T07:09:47;-2.90;99.90
55369;DHT22;41247;49.736;8.752;2023-02-26T07:13:27;-2.90;99.90
55369;DHT22;41247;49.736;8.752;2023-02-26T07:17:08;-3.00;99.90
55369;DHT22;41247;49.736;8.752;2023-02-26T07:20:49;-3.00;99.90
55369;DHT22;41247;49.736;8.752;2023-02-26T07:24:29;-3.00;99.90
55369;DHT22;41247;49.736;8.752;2023-02-26T07:28:10;-3.00;99.90
55369;DHT22;41247;49.736;8.752;2023-02-26T07:31:51;-3.00;99.90
55369;DHT22;41247;49.736;8.752;2023-02-26T07:35:31;-2.90;99.90
55369;DHT22;41247;49.736;8.752;2023-02-26T07:39:12;-2.80;99.90
55369;DHT22;41247;49.736;8.752;2023-02-26T07:42:53;-2.80;99.90
55369;DHT22;41247;49.736;8.752;2023-02-26T07:46:33;-2.70;99.90
55369;DHT22;41247;49.736;8.752;2023-02-26T07:50:14;-2.60;99.90
55369;DHT22;41247;49.736;8.752;2023-02-26T07:53:55;-2.40;99.90
55369;DHT22;41247;49.736;8.752;2023-02-26T07:57:36;-2.20;99.90
55369;DHT22;41247;49.736;8.752;2023-02-26T08:01:16;-2.00;99.90
55369;DHT22;41247;49.736;8.752;2023-02-26T08:04:57;-1.90;99.90
55369;DHT22;41247;49.736;8.752;2023-02-26T08:08:38;-1.80;99.90
55369;DHT22;41247;49.736;8.752;2023-02-26T08:12:18;-1.80;99.90
55369;DHT22;41247;49.736;8.752;2023-02-26T08:15:59;-1.80;99.90
55369;DHT22;41247;49.736;8.752;2023-02-26T08:19:39;-1.60;99.90
55369;DHT22;41247;49.736;8.752;2023-02-26T08:23:20;-1.50;99.90
55369;DHT22;41247;49.736;8.752;2023-02-26T08:27:00;-1.40;99.90
55369;DHT22;41247;49.736;8.752;2023-02-26T08:30:41;-1.30;99.90
55369;DHT22;41247;49.736;8.752;2023-02-26T08:34:22;-1.10;99.90
55369;DHT22;41247;49.736;8.752;2023-02-26T08:38:02;-1.00;99.90
55369;DHT22;41247;49.736;8.752;2023-02-26T08:41:43;-0.90;99.90
55369;DHT22;41247;49.736;8.752;2023-02-26T08:45:23;-0.80;99.90
55369;DHT22;41247;49.736;8.752;2023-02-26T08:49:04;-0.70;99.90
55369;DHT22;41247;49.736;8.752;2023-02-26T08:52:44;-0.60;99.90
55369;DHT22;41247;49.736;8.752;2023-02-26T08:56:25;-0.60;99.90
55369;DHT22;41247;49.736;8.752;2023-02-26T09:00:06;-0.60;99.90
55369;DHT22;41247;49.736;8.752;2023-02-26T09:03:47;-0.70;99.90
55369;DHT22;41247;49.736;8.752;2023-02-26T09:07:27;-0.60;99.90
55369;DHT22;41247;49.736;8.752;2023-02-26T09:11:08;-0.50;99.90
55369;DHT22;41247;49.736;8.752;2023-02-26T09:14:49;-0.50;99.90
55369;DHT22;41247;49.736;8.752;2023-02-26T09:18:29;-0.30;99.90
55369;DHT22;41247;49.736;8.752;2023-02-26T09:22:10;-0.30;99.90
55369;DHT22;41247;49.736;8.752;2023-02-26T09:25:55;-0.20;99.90
55369;DHT22;41247;49.736;8.752;2023-02-26T09:29:36;-0.10;99.90
55369;DHT22;41247;49.736;8.752;2023-02-26T09:33:17;0.10;99.90
55369;DHT22;41247;49.736;8.752;2023-02-26T09:36:58;0.10;99.90
55369;DHT22;41247;49.736;8.752;2023-02-26T09:40:49;0.20;99.90
55369;DHT22;41247;49.736;8.752;2023-02-26T09:44:33;0.30;99.90
55369;DHT22;41247;49.736;8.752;2023-02-26T09:48:17;0.40;99.90
55369;DHT22;41247;49.736;8.752;2023-02-26T09:52:50;0.60;99.90
55369;DHT22;41247;49.736;8.752;2023-02-26T09:56:07;0.70;99.90
55369;DHT22;41247;49.736;8.752;2023-02-26T09:59:53;0.70;99.90
55369;DHT22;41247;49.736;8.752;2023-02-26T10:08:01;0.60;99.90
55369;DHT22;41247;49.736;8.752;2023-02-26T10:12:19;0.60;99.90
55369;DHT22;41247;49.736;8.752;2023-02-26T10:16:06;0.70;99.90
55369;DHT22;41247;49.736;8.752;2023-02-26T10:19:55;0.80;99.90
55369;DHT22;41247;49.736;8.752;2023-02-26T10:23:54;0.90;99.90
55369;DHT22;41247;49.736;8.752;2023-02-26T10:27:54;0.80;99.90
55369;DHT22;41247;49.736;8.752;2023-02-26T10:44:53;1.20;99.90
55369;DHT22;41247;49.736;8.752;2023-02-26T10:49:00;1.30;99.90
55369;DHT22;41247;49.736;8.752;2023-02-26T10:52:49;1.30;99.90
55369;DHT22;41247;49.736;8.752;2023-02-26T10:56:32;1.40;99.90
55369;DHT22;41247;49.736;8.752;2023-02-26T11:00:16;1.50;99.90
55369;DHT22;41247;49.736;8.752;2023-02-26T11:04:21;1.60;99.90
55369;DHT22;41247;49.736;8.752;2023-02-26T11:08:14;1.60;99.90
55369;DHT22;41247;49.736;8.752;2023-02-26T11:12:05;1.70;99.90
55369;DHT22;41247;49.736;8.752;2023-02-26T11:15:58;1.70;99.90
55369;DHT22;41247;49.736;8.752;2023-02-26T11:19:55;1.60;99.90
55369;DHT22;41247;49.736;8.752;2023-02-26T11:23:37;1.70;99.90
55369;DHT22;41247;49.736;8.752;2023-02-26T11:27:29;1.80;99.90
55369;DHT22;41247;49.736;8.752;2023-02-26T11:31:15;1.90;99.90
55369;DHT22;41247;49.736;8.752;2023-02-26T11:34:57;2.00;99.90
55369;DHT22;41247;49.736;8.752;2023-02-26T11:38:38;2.00;99.90
55369;DHT22;41247;49.736;8.752;2023-02-26T11:42:19;1.90;99.90
55369;DHT22;41247;49.736;8.752;2023-02-26T11:46:01;1.90;99.90
55369;DHT22;41247;49.736;8.752;2023-02-26T11:49:44;1.80;99.90
55369;DHT22;41247;49.736;8.752;2023-02-26T11:53:42;1.60;99.90
55369;DHT22;41247;49.736;8.752;2023-02-26T11:57:29;1.60;99.90
55369;DHT22;41247;49.736;8.752;2023-02-26T12:01:13;1.60;99.90
55369;DHT22;41247;49.736;8.752;2023-02-26T12:04:58;1.80;99.90
55369;DHT22;41247;49.736;8.752;2023-02-26T12:08:41;1.90;99.90
55369;DHT22;41247;49.736;8.752;2023-02-26T12:12:47;2.00;99.90
55369;DHT22;41247;49.736;8.752;2023-02-26T12:17:04;2.10;99.90
55369;DHT22;41247;49.736;8.752;2023-02-26T12:20:52;2.20;99.90
55369;DHT22;41247;49.736;8.752;2023-02-26T12:25:15;2.40;99.90
55369;DHT22;41247;49.736;8.752;2023-02-26T12:33:39;2.40;99.90
55369;DHT22;41247;49.736;8.752;2023-02-26T12:37:57;2.40;99.90
55369;DHT22;41247;49.736;8.752;2023-02-26T12:42:20;2.40;99.90
55369;DHT22;41247;49.736;8.752;2023-02-26T12:50:34;2.50;99.90
55369;DHT22;41247;49.736;8.752;2023-02-26T12:59:14;2.50;99.90
55369;DHT22;41247;49.736;8.752;2023-02-26T13:03:42;2.70;99.90
55369;DHT22;41247;49.736;8.752;2023-02-26T13:07:59;2.80;99.90
55369;DHT22;41247;49.736;8.752;2023-02-26T13:12:02;2.70;99.90
55369;DHT22;41247;49.736;8.752;2023-02-26T13:20:12;2.30;99.90
55369;DHT22;41247;49.736;8.752;2023-02-26T13:24:02;2.30;99.90
55369;DHT22;41247;49.736;8.752;2023-02-26T13:32:23;2.50;99.90
55369;DHT22;41247;49.736;8.752;2023-02-26T13:36:06;2.60;99.90
55369;DHT22;41247;49.736;8.752;2023-02-26T13:44:11;2.50;99.90
55369;DHT22;41247;49.736;8.752;2023-02-26T13:52:02;2.10;99.90
55369;DHT22;41247;49.736;8.752;2023-02-26T13:55:45;2.00;99.90
55369;DHT22;41247;49.736;8.752;2023-02-26T13:59:34;1.90;99.90
55369;DHT22;41247;49.736;8.752;2023-02-26T14:07:13;1.80;99.90
55369;DHT22;41247;49.736;8.752;2023-02-26T14:10:58;1.80;99.90
55369;DHT22;41247;49.736;8.752;2023-02-26T14:22:21;1.80;99.90
55369;DHT22;41247;49.736;8.752;2023-02-26T14:26:04;1.70;99.90
55369;DHT22;41247;49.736;8.752;2023-02-26T14:38:05;1.50;99.90
55369;DHT22;41247;49.736;8.752;2023-02-26T14:41:48;1.50;99.90
55369;DHT22;41247;49.736;8.752;2023-02-26T14:45:37;1.60;99.90
55369;DHT22;41247;49.736;8.752;2023-02-26T14:49:39;1.70;99.90
55369;DHT22;41247;49.736;8.752;2023-02-26T14:53:47;1.80;99.90
55369;DHT22;41247;49.736;8.752;2023-02-26T15:01:59;2.90;99.90
55369;DHT22;41247;49.736;8.752;2023-02-26T15:10:31;10.10;99.90
55369;DHT22;41247;49.736;8.752;2023-02-26T15:14:45;12.40;99.90
55369;DHT22;41247;49.736;8.752;2023-02-26T15:19:00;13.10;99.90
55369;DHT22;41247;49.736;8.752;2023-02-26T15:22:59;14.80;99.90
55369;DHT22;41247;49.736;8.752;2023-02-26T15:26:53;15.00;99.90
55369;DHT22;41247;49.736;8.752;2023-02-26T15:30:35;14.40;99.90
55369;DHT22;41247;49.736;8.752;2023-02-26T15:34:19;14.40;99.90
55369;DHT22;41247;49.736;8.752;2023-02-26T15:38:01;13.00;99.90
55369;DHT22;41247;49.736;8.752;2023-02-26T15:41:43;10.80;99.90
55369;DHT22;41247;49.736;8.752;2023-02-26T15:45:39;8.70;99.90
55369;DHT22;41247;49.736;8.752;2023-02-26T15:49:29;6.10;99.90
55369;DHT22;41247;49.736;8.752;2023-02-26T15:53:33;4.60;99.90
55369;DHT22;41247;49.736;8.752;2023-02-26T15:57:19;5.00;99.90
55369;DHT22;41247;49.736;8.752;2023-02-26T16:01:02;5.30;99.90
55369;DHT22;41247;49.736;8.752;2023-02-26T16:04:44;4.70;99.90
55369;DHT22;41247;49.736;8.752;2023-02-26T16:08:25;4.00;99.90
55369;DHT22;41247;49.736;8.752;2023-02-26T16:12:09;3.30;99.90
55369;DHT22;41247;49.736;8.752;2023-02-26T16:16:05;3.00;99.90
55369;DHT22;41247;49.736;8.752;2023-02-26T16:19:49;3.30;99.90
55369;DHT22;41247;49.736;8.752;2023-02-26T16:23:45;3.10;99.90
55369;DHT22;41247;49.736;8.752;2023-02-26T16:27:29;3.50;99.90
55369;DHT22;41247;49.736;8.752;2023-02-26T16:31:18;4.00;99.90
55369;DHT22;41247;49.736;8.752;2023-02-26T16:35:11;3.50;99.90
55369;DHT22;41247;49.736;8.752;2023-02-26T16:39:00;2.70;99.90
55369;DHT22;41247;49.736;8.752;2023-02-26T16:43:03;2.20;99.90
55369;DHT22;41247;49.736;8.752;2023-02-26T16:46:45;1.80;99.90
55369;DHT22;41247;49.736;8.752;2023-02-26T16:50:29;1.50;99.90
55369;DHT22;41247;49.736;8.752;2023-02-26T16:54:19;1.30;99.90
55369;DHT22;41247;49.736;8.752;2023-02-26T16:58:04;1.10;99.90
55369;DHT22;41247;49.736;8.752;2023-02-26T17:01:59;1.00;99.90
55369;DHT22;41247;49.736;8.752;2023-02-26T17:05:55;0.90;99.90
55369;DHT22;41247;49.736;8.752;2023-02-26T17:09:40;0.80;99.90
55369;DHT22;41247;49.736;8.752;2023-02-26T17:13:29;0.70;99.90
55369;DHT22;41247;49.736;8.752;2023-02-26T17:17:11;0.70;99.90
55369;DHT22;41247;49.736;8.752;2023-02-26T17:20:52;0.70;99.90
55369;DHT22;41247;49.736;8.752;2023-02-26T17:24:35;0.60;99.90
55369;DHT22;41247;49.736;8.752;2023-02-26T17:28:26;0.50;99.90
55369;DHT22;41247;49.736;8.752;2023-02-26T17:32:22;0.40;99.90
55369;DHT22;41247;49.736;8.752;2023-02-26T17:36:04;0.30;99.90
55369;DHT22;41247;49.736;8.752;2023-02-26T17:39:45;0.10;99.90
55369;DHT22;41247;49.736;8.752;2023-02-26T17:43:26;0.10;99.90
55369;DHT22;41247;49.736;8.752;2023-02-26T17:47:15;0.00;99.90
55369;DHT22;41247;49.736;8.752;2023-02-26T17:51:03;0.00;99.90
55369;DHT22;41247;49.736;8.752;2023-02-26T17:54:44;0.00;99.90
55369;DHT22;41247;49.736;8.752;2023-02-26T17:58:30;0.00;99.90
55369;DHT22;41247;49.736;8.752;2023-02-26T18:02:20;0.00;99.90
55369;DHT22;41247;49.736;8.752;2023-02-26T18:06:02;0.00;99.90
55369;DHT22;41247;49.736;8.752;2023-02-26T18:09:44;0.00;99.90
55369;DHT22;41247;49.736;8.752;2023-02-26T18:13:26;0.00;99.90
55369;DHT22;41247;49.736;8.752;2023-02-26T18:17:28;0.00;99.90
55369;DHT22;41247;49.736;8.752;2023-02-26T18:21:09;0.00;99.90
55369;DHT22;41247;49.736;8.752;2023-02-26T18:24:50;0.00;99.90
55369;DHT22;41247;49.736;8.752;2023-02-26T18:28:31;0.10;99.90
55369;DHT22;41247;49.736;8.752;2023-02-26T18:32:13;0.00;99.90
55369;DHT22;41247;49.736;8.752;2023-02-26T18:35:58;0.00;99.90
55369;DHT22;41247;49.736;8.752;2023-02-26T18:39:39;-0.10;99.90
55369;DHT22;41247;49.736;8.752;2023-02-26T18:43:20;-0.20;99.90
55369;DHT22;41247;49.736;8.752;2023-02-26T18:47:01;-0.30;99.90
55369;DHT22;41247;49.736;8.752;2023-02-26T18:50:42;-0.40;99.90
55369;DHT22;41247;49.736;8.752;2023-02-26T18:54:23;-0.50;99.90
55369;DHT22;41247;49.736;8.752;2023-02-26T18:58:04;-0.60;99.90
55369;DHT22;41247;49.736;8.752;2023-02-26T19:01:45;-0.60;99.90
55369;DHT22;41247;49.736;8.752;2023-02-26T19:05:25;-0.70;99.90
55369;DHT22;41247;49.736;8.752;2023-02-26T19:09:06;-0.70;99.90
55369;DHT22;41247;49.736;8.752;2023-02-26T19:12:46;-0.70;99.90
55369;DHT22;41247;49.736;8.752;2023-02-26T19:16:27;-0.80;99.90
55369;DHT22;41247;49.736;8.752;2023-02-26T19:20:09;-0.90;99.90
55369;DHT22;41247;49.736;8.752;2023-02-26T19:23:50;-1.00;99.90
55369;DHT22;41247;49.736;8.752;2023-02-26T19:27:31;-1.00;99.90
55369;DHT22;41247;49.736;8.752;2023-02-26T19:31:11;-1.10;99.90
55369;DHT22;41247;49.736;8.752;2023-02-26T19:34:52;-1.10;99.90
55369;DHT22;41247;49.736;8.752;2023-02-26T19:38:32;-1.20;99.90
55369;DHT22;41247;49.736;8.752;2023-02-26T19:42:13;-1.20;99.90
55369;DHT22;41247;49.736;8.752;2023-02-26T19:45:54;-1.30;99.90
55369;DHT22;41247;49.736;8.752;2023-02-26T19:49:34;-1.40;99.90
55369;DHT22;41247;49.736;8.752;2023-02-26T19:53:15;-1.40;99.90
55369;DHT22;41247;49.736;8.752;2023-02-26T19:56:56;-1.40;99.90
55369;DHT22;41247;49.736;8.752;2023-02-26T20:00:37;-1.50;99.90
55369;DHT22;41247;49.736;8.752;2023-02-26T20:04:17;-1.60;99.90
55369;DHT22;41247;49.736;8.752;2023-02-26T20:07:58;-1.70;99.90
55369;DHT22;41247;49.736;8.752;2023-02-26T20:11:39;-1.70;99.90
55369;DHT22;41247;49.736;8.752;2023-02-26T20:15:20;-1.70;99.90
55369;DHT22;41247;49.736;8.752;2023-02-26T20:19:01;-1.80;99.90
55369;DHT22;41247;49.736;8.752;2023-02-26T20:22:42;-1.80;99.90
55369;DHT22;41247;49.736;8.752;2023-02-26T20:26:23;-1.80;99.90
55369;DHT22;41247;49.736;8.752;2023-02-26T20:30:04;-1.80;99.90
55369;DHT22;41247;49.736;8.752;2023-02-26T20:33:45;-1.90;99.90
55369;DHT22;41247;49.736;8.752;2023-02-26T20:37:26;-1.90;99.90
55369;DHT22;41247;49.736;8.752;2023-02-26T20:41:07;-2.00;99.90
55369;DHT22;41247;49.736;8.752;2023-02-26T20:44:48;-2.00;99.90
55369;DHT22;41247;49.736;8.752;2023-02-26T20:48:29;-2.00;99.90
55369;DHT22;41247;49.736;8.752;2023-02-26T20:52:09;-2.00;99.90
55369;DHT22;41247;49.736;8.752;2023-02-26T20:55:50;-2.00;99.90
55369;DHT22;41247;49.736;8.752;2023-02-26T20:59:30;-2.10;99.90
55369;DHT22;41247;49.736;8.752;2023-02-26T21:03:11;-2.00;99.90
55369;DHT22;41247;49.736;8.752;2023-02-26T21:06:52;-2.00;99.90
55369;DHT22;41247;49.736;8.752;2023-02-26T21:10:33;-1.90;99.90
55369;DHT22;41247;49.736;8.752;2023-02-26T21:14:13;-2.00;99.90
55369;DHT22;41247;49.736;8.752;2023-02-26T21:17:54;-2.00;99.90
55369;DHT22;41247;49.736;8.752;2023-02-26T21:21:35;-2.00;99.90
55369;DHT22;41247;49.736;8.752;2023-02-26T21:25:16;-2.00;99.90
55369;DHT22;41247;49.736;8.752;2023-02-26T21:28:56;-2.00;99.90
55369;DHT22;41247;49.736;8.752;2023-02-26T21:32:37;-2.10;99.90
55369;DHT22;41247;49.736;8.752;2023-02-26T21:36:18;-2.10;99.90
55369;DHT22;41247;49.736;8.752;2023-02-26T21:39:58;-2.10;99.90
55369;DHT22;41247;49.736;8.752;2023-02-26T21:43:39;-2.10;99.90
55369;DHT22;41247;49.736;8.752;2023-02-26T21:47:20;-2.10;99.90
55369;DHT22;41247;49.736;8.752;2023-02-26T21:51:00;-2.10;99.90
55369;DHT22;41247;49.736;8.752;2023-02-26T21:54:41;-2.10;99.90
55369;DHT22;41247;49.736;8.752;2023-02-26T21:58:21;-2.10;99.90
55369;DHT22;41247;49.736;8.752;2023-02-26T22:02:03;-2.20;99.90
55369;DHT22;41247;49.736;8.752;2023-02-26T22:05:43;-2.20;99.90
55369;DHT22;41247;49.736;8.752;2023-02-26T22:09:24;-2.20;99.90
55369;DHT22;41247;49.736;8.752;2023-02-26T22:13:04;-2.30;99.90
55369;DHT22;41247;49.736;8.752;2023-02-26T22:16:45;-2.30;99.90
55369;DHT22;41247;49.736;8.752;2023-02-26T22:20:26;-2.30;99.90
55369;DHT22;41247;49.736;8.752;2023-02-26T22:24:07;-2.30;99.90
55369;DHT22;41247;49.736;8.752;2023-02-26T22:27:47;-2.40;99.90
55369;DHT22;41247;49.736;8.752;2023-02-26T22:31:29;-2.40;99.90
55369;DHT22;41247;49.736;8.752;2023-02-26T22:35:10;-2.40;99.90
55369;DHT22;41247;49.736;8.752;2023-02-26T22:38:54;-2.50;99.90
55369;DHT22;41247;49.736;8.752;2023-02-26T22:42:34;-2.50;99.90
55369;DHT22;41247;49.736;8.752;2023-02-26T22:46:15;-2.60;99.90
55369;DHT22;41247;49.736;8.752;2023-02-26T22:49:56;-2.60;99.90
55369;DHT22;41247;49.736;8.752;2023-02-26T22:53:36;-2.60;99.90
55369;DHT22;41247;49.736;8.752;2023-02-26T22:57:17;-2.60;99.90
55369;DHT22;41247;49.736;8.752;2023-02-26T23:01:02;-2.60;99.90
55369;DHT22;41247;49.736;8.752;2023-02-26T23:04:44;-2.70;99.90
55369;DHT22;41247;49.736;8.752;2023-02-26T23:08:25;-2.70;99.90
55369;DHT22;41247;49.736;8.752;2023-02-26T23:12:07;-2.70;99.90
55369;DHT22;41247;49.736;8.752;2023-02-26T23:15:48;-2.70;99.90
55369;DHT22;41247;49.736;8.752;2023-02-26T23:19:28;-2.80;99.90
55369;DHT22;41247;49.736;8.752;2023-02-26T23:23:09;-2.80;99.90
55369;DHT22;41247;49.736;8.752;2023-02-26T23:26:49;-2.90;99.90
55369;DHT22;41247;49.736;8.752;2023-02-26T23:30:30;-2.90;99.90
55369;DHT22;41247;49.736;8.752;2023-02-26T23:34:11;-3.00;99.90
55369;DHT22;41247;49.736;8.752;2023-02-26T23:37:51;-3.00;99.90
55369;DHT22;41247;49.736;8.752;2023-02-26T23:41:32;-3.10;99.90
55369;DHT22;41247;49.736;8.752;2023-02-26T23:45:13;-3.10;99.90
55369;DHT22;41247;49.736;8.752;2023-02-26T23:48:54;-3.20;99.90
55369;DHT22;41247;49.736;8.752;2023-02-26T23:52:35;-3.20;99.90
55369;DHT22;41247;49.736;8.752;2023-02-26T23:56:16;-3.20;99.90
55369;DHT22;41247;49.736;8.752;2023-02-26T23:59:56;-3.20;99.90
